sensor_id;sensor_type;location;lat;lon;timestamp;pressure;altitude;pressure_sealevel;temperature;humidity
71716;BME280;59568;52.128;5.434;2022-12-07T00:01:58;101999.22;;;2.38;98.34
71716;BME280;59568;52.128;5.434;2022-12-07T00:04:26;101994.44;;;2.35;98.46
71716;BME280;59568;52.128;5.434;2022-12-07T00:06:53;101994.06;;;2.31;98.24
71716;BME280;59568;52.128;5.434;2022-12-07T00:09:23;101999.63;;;2.28;98.04
71716;BME280;59568;52.128;5.434;2022-12-07T00:11:52;101993.09;;;2.26;98.15
71716;BME280;59568;52.128;5.434;2022-12-07T00:14:19;101997.06;;;2.22;98.08
71716;BME280;59568;52.128;5.434;2022-12-07T00:16:51;101996.25;;;2.21;98.26
71716;BME280;59568;52.128;5.434;2022-12-07T00:19:19;101988.72;;;2.13;98.21
71716;BME280;59568;52.128;5.434;2022-12-07T00:21:49;101990.13;;;2.09;98.18
71716;BME280;59568;52.128;5.434;2022-12-07T00:24:16;101984.56;;;2.05;98.26
71716;BME280;59568;52.128;5.434;2022-12-07T00:26:43;101994.09;;;2.05;98.18
71716;BME280;59568;52.128;5.434;2022-12-07T00:29:17;101981.41;;;1.96;98.25
71716;BME280;59568;52.128;5.434;2022-12-07T00:31:48;101982.19;;;1.97;97.91
71716;BME280;59568;52.128;5.434;2022-12-07T00:34:20;101979.84;;;1.95;98.02
71716;BME280;59568;52.128;5.434;2022-12-07T00:36:48;101968.13;;;1.93;98.35
71716;BME280;59568;52.128;5.434;2022-12-07T00:39:15;101971.09;;;1.96;98.32
71716;BME280;59568;52.128;5.434;2022-12-07T00:41:42;101975.06;;;1.99;98.56
71716;BME280;59568;52.128;5.434;2022-12-07T00:44:09;101968.72;;;2.02;98.63
71716;BME280;59568;52.128;5.434;2022-12-07T00:46:36;101967.91;;;2.01;98.54
71716;BME280;59568;52.128;5.434;2022-12-07T00:49:03;101962.97;;;1.99;98.48
71716;BME280;59568;52.128;5.434;2022-12-07T00:51:31;101961.38;;;1.98;98.61
71716;BME280;59568;52.128;5.434;2022-12-07T00:53:58;101961.97;;;1.94;98.52
71716;BME280;59568;52.128;5.434;2022-12-07T00:56:26;101965.34;;;1.94;98.41
71716;BME280;59568;52.128;5.434;2022-12-07T01:01:24;101966.34;;;1.87;98.62
71716;BME280;59568;52.128;5.434;2022-12-07T01:03:51;101958.81;;;1.85;98.63
71716;BME280;59568;52.128;5.434;2022-12-07T01:06:20;101965.16;;;1.83;98.67
71716;BME280;59568;52.128;5.434;2022-12-07T01:08:48;101962.56;;;1.83;98.74
71716;BME280;59568;52.128;5.434;2022-12-07T01:11:17;101954.44;;;1.79;98.63
71716;BME280;59568;52.128;5.434;2022-12-07T01:13:46;101957.84;;;1.79;98.74
71716;BME280;59568;52.128;5.434;2022-12-07T01:16:15;101963.59;;;1.82;98.86
71716;BME280;59568;52.128;5.434;2022-12-07T01:18:46;101961.97;;;1.80;98.68
71716;BME280;59568;52.128;5.434;2022-12-07T01:21:19;101964.97;;;1.84;98.83
71716;BME280;59568;52.128;5.434;2022-12-07T01:23:51;101956.63;;;1.82;99.04
71716;BME280;59568;52.128;5.434;2022-12-07T01:26:21;101959.81;;;1.84;99.00
71716;BME280;59568;52.128;5.434;2022-12-07T01:28:57;101965.94;;;1.83;98.95
71716;BME280;59568;52.128;5.434;2022-12-07T01:31:30;101967.13;;;1.80;98.96
71716;BME280;59568;52.128;5.434;2022-12-07T01:33:58;101966.72;;;1.77;98.95
71716;BME280;59568;52.128;5.434;2022-12-07T01:36:32;101967.31;;;1.79;98.99
71716;BME280;59568;52.128;5.434;2022-12-07T01:39:05;101965.16;;;1.76;98.87
71716;BME280;59568;52.128;5.434;2022-12-07T01:41:35;101962.38;;;1.71;98.95
71716;BME280;59568;52.128;5.434;2022-12-07T01:44:21;101973.50;;;1.71;98.92
71716;BME280;59568;52.128;5.434;2022-12-07T01:46:56;101969.50;;;1.69;98.80
71716;BME280;59568;52.128;5.434;2022-12-07T01:49:44;101971.47;;;1.67;98.93
71716;BME280;59568;52.128;5.434;2022-12-07T01:52:26;101968.31;;;1.65;98.94
71716;BME280;59568;52.128;5.434;2022-12-07T01:54:57;101966.53;;;1.58;98.75
71716;BME280;59568;52.128;5.434;2022-12-07T01:57:29;101968.69;;;1.55;98.91
71716;BME280;59568;52.128;5.434;2022-12-07T01:59:58;101962.75;;;1.54;98.77
71716;BME280;59568;52.128;5.434;2022-12-07T02:02:38;101971.50;;;1.53;98.88
71716;BME280;59568;52.128;5.434;2022-12-07T02:05:08;101970.91;;;1.51;99.13
71716;BME280;59568;52.128;5.434;2022-12-07T02:07:38;101968.69;;;1.48;98.91
71716;BME280;59568;52.128;5.434;2022-12-07T02:10:32;101978.63;;;1.51;99.19
71716;BME280;59568;52.128;5.434;2022-12-07T02:21:19;101962.38;;;1.57;99.33
71716;BME280;59568;52.128;5.434;2022-12-07T02:29:53;101958.41;;;1.62;99.25
71716;BME280;59568;52.128;5.434;2022-12-07T02:40:50;101952.88;;;1.78;99.70
71716;BME280;59568;52.128;5.434;2022-12-07T02:43:24;101952.69;;;1.79;99.83
71716;BME280;59568;52.128;5.434;2022-12-07T02:45:56;101949.69;;;1.83;99.91
71716;BME280;59568;52.128;5.434;2022-12-07T02:48:26;101947.69;;;1.85;100.00
71716;BME280;59568;52.128;5.434;2022-12-07T02:50:56;101942.94;;;1.88;99.67
71716;BME280;59568;52.128;5.434;2022-12-07T02:53:41;101955.81;;;1.95;100.00
71716;BME280;59568;52.128;5.434;2022-12-07T03:07:39;101950.47;;;2.10;99.87
71716;BME280;59568;52.128;5.434;2022-12-07T03:10:20;101960.78;;;2.10;100.00
71716;BME280;59568;52.128;5.434;2022-12-07T03:15:39;101948.06;;;2.15;100.00
71716;BME280;59568;52.128;5.434;2022-12-07T03:18:09;101948.66;;;2.17;100.00
71716;BME280;59568;52.128;5.434;2022-12-07T03:20:39;101945.69;;;2.20;100.00
71716;BME280;59568;52.128;5.434;2022-12-07T03:23:09;101946.28;;;2.22;100.00
71716;BME280;59568;52.128;5.434;2022-12-07T03:25:44;101949.84;;;2.21;100.00
71716;BME280;59568;52.128;5.434;2022-12-07T03:28:15;101940.72;;;2.18;100.00
71716;BME280;59568;52.128;5.434;2022-12-07T03:30:50;101941.94;;;2.16;100.00
71716;BME280;59568;52.128;5.434;2022-12-07T03:33:31;101936.38;;;2.12;100.00
71716;BME280;59568;52.128;5.434;2022-12-07T03:36:15;101942.31;;;2.13;100.00
71716;BME280;59568;52.128;5.434;2022-12-07T03:38:48;101930.25;;;2.13;100.00
71716;BME280;59568;52.128;5.434;2022-12-07T03:41:24;101937.75;;;2.15;100.00
71716;BME280;59568;52.128;5.434;2022-12-07T03:43:55;101930.03;;;2.08;99.92
71716;BME280;59568;52.128;5.434;2022-12-07T03:46:44;101928.66;;;2.06;99.96
71716;BME280;59568;52.128;5.434;2022-12-07T03:49:21;101923.09;;;2.02;99.70
71716;BME280;59568;52.128;5.434;2022-12-07T03:52:02;101928.47;;;2.00;100.00
71716;BME280;59568;52.128;5.434;2022-12-07T03:54:48;101929.47;;;1.99;100.00
71716;BME280;59568;52.128;5.434;2022-12-07T03:57:19;101927.66;;;2.00;99.74
71716;BME280;59568;52.128;5.434;2022-12-07T03:59:47;101934.78;;;2.05;100.00
71716;BME280;59568;52.128;5.434;2022-12-07T04:02:15;101940.97;;;2.04;99.87
71716;BME280;59568;52.128;5.434;2022-12-07T04:04:43;101935.81;;;2.04;99.98
71716;BME280;59568;52.128;5.434;2022-12-07T04:07:11;101929.84;;;2.03;99.80
71716;BME280;59568;52.128;5.434;2022-12-07T04:09:38;101929.25;;;2.01;99.99
71716;BME280;59568;52.128;5.434;2022-12-07T04:12:04;101929.06;;;2.03;99.99
71716;BME280;59568;52.128;5.434;2022-12-07T04:14:31;101917.16;;;2.02;99.80
71716;BME280;59568;52.128;5.434;2022-12-07T04:16:59;101918.34;;;2.06;100.00
71716;BME280;59568;52.128;5.434;2022-12-07T04:19:33;101929.25;;;2.08;100.00
71716;BME280;59568;52.128;5.434;2022-12-07T04:22:02;101917.94;;;2.09;100.00
71716;BME280;59568;52.128;5.434;2022-12-07T04:24:29;101910.38;;;2.07;100.00
71716;BME280;59568;52.128;5.434;2022-12-07T04:26:57;101920.50;;;2.09;99.90
71716;BME280;59568;52.128;5.434;2022-12-07T04:29:24;101923.28;;;2.07;100.00
71716;BME280;59568;52.128;5.434;2022-12-07T04:31:51;101921.91;;;2.05;99.80
71716;BME280;59568;52.128;5.434;2022-12-07T04:34:19;101921.31;;;2.03;99.75
71716;BME280;59568;52.128;5.434;2022-12-07T04:36:47;101927.47;;;2.02;100.00
71716;BME280;59568;52.128;5.434;2022-12-07T04:39:40;101931.03;;;2.00;99.97
71716;BME280;59568;52.128;5.434;2022-12-07T04:42:07;101917.56;;;1.98;99.93
71716;BME280;59568;52.128;5.434;2022-12-07T04:44:35;101916.78;;;1.98;99.75
71716;BME280;59568;52.128;5.434;2022-12-07T04:47:01;101919.53;;;1.96;99.90
71716;BME280;59568;52.128;5.434;2022-12-07T04:49:29;101924.69;;;1.96;99.92
71716;BME280;59568;52.128;5.434;2022-12-07T04:51:55;101924.69;;;1.96;100.00
71716;BME280;59568;52.128;5.434;2022-12-07T04:54:22;101923.31;;;2.00;100.00
71716;BME280;59568;52.128;5.434;2022-12-07T04:56:49;101916.94;;;2.03;99.96
71716;BME280;59568;52.128;5.434;2022-12-07T04:59:17;101917.75;;;2.04;100.00
71716;BME280;59568;52.128;5.434;2022-12-07T05:01:44;101920.94;;;2.06;99.92
71716;BME280;59568;52.128;5.434;2022-12-07T05:04:11;101912.59;;;2.04;99.86
71716;BME280;59568;52.128;5.434;2022-12-07T05:06:38;101908.63;;;2.01;99.90
71716;BME280;59568;52.128;5.434;2022-12-07T05:09:05;101909.22;;;1.96;99.99
71716;BME280;59568;52.128;5.434;2022-12-07T05:11:32;101892.59;;;1.92;99.90
71716;BME280;59568;52.128;5.434;2022-12-07T05:14:14;101896.38;;;1.90;99.91
71716;BME280;59568;52.128;5.434;2022-12-07T05:16:43;101902.91;;;1.86;99.71
71716;BME280;59568;52.128;5.434;2022-12-07T05:19:11;101898.34;;;1.81;99.71
71716;BME280;59568;52.128;5.434;2022-12-07T05:21:39;101902.91;;;1.79;99.50
71716;BME280;59568;52.128;5.434;2022-12-07T05:24:14;101902.91;;;1.72;99.59
71716;BME280;59568;52.128;5.434;2022-12-07T05:26:46;101901.53;;;1.70;99.35
71716;BME280;59568;52.128;5.434;2022-12-07T05:29:14;101901.91;;;1.67;99.51
71716;BME280;59568;52.128;5.434;2022-12-07T05:31:42;101901.31;;;1.65;99.86
71716;BME280;59568;52.128;5.434;2022-12-07T05:34:10;101897.56;;;1.60;99.65
71716;BME280;59568;52.128;5.434;2022-12-07T05:36:37;101911.44;;;1.59;99.53
71716;BME280;59568;52.128;5.434;2022-12-07T05:39:05;101900.56;;;1.57;99.28
71716;BME280;59568;52.128;5.434;2022-12-07T05:41:32;101895.78;;;1.54;99.54
71716;BME280;59568;52.128;5.434;2022-12-07T05:44:18;101906.50;;;1.51;99.21
71716;BME280;59568;52.128;5.434;2022-12-07T05:46:45;101902.72;;;1.47;99.55
71716;BME280;59568;52.128;5.434;2022-12-07T05:49:12;101897.59;;;1.47;99.57
71716;BME280;59568;52.128;5.434;2022-12-07T05:51:38;101909.66;;;1.47;99.46
71716;BME280;59568;52.128;5.434;2022-12-07T05:54:05;101910.47;;;1.47;99.67
71716;BME280;59568;52.128;5.434;2022-12-07T05:56:33;101902.94;;;1.46;99.63
71716;BME280;59568;52.128;5.434;2022-12-07T05:59:00;101904.50;;;1.47;99.42
71716;BME280;59568;52.128;5.434;2022-12-07T06:01:45;101912.81;;;1.49;99.64
71716;BME280;59568;52.128;5.434;2022-12-07T06:04:12;101903.31;;;1.49;99.45
71716;BME280;59568;52.128;5.434;2022-12-07T06:06:40;101899.16;;;1.48;99.47
71716;BME280;59568;52.128;5.434;2022-12-07T06:09:07;101906.50;;;1.51;99.77
71716;BME280;59568;52.128;5.434;2022-12-07T06:11:34;101907.66;;;1.49;99.40
71716;BME280;59568;52.128;5.434;2022-12-07T06:14:23;101903.72;;;1.46;99.59
71716;BME280;59568;52.128;5.434;2022-12-07T06:16:51;101892.22;;;1.42;99.51
71716;BME280;59568;52.128;5.434;2022-12-07T06:19:18;101908.09;;;1.39;99.54
71716;BME280;59568;52.128;5.434;2022-12-07T06:21:45;101913.22;;;1.39;99.26
71716;BME280;59568;52.128;5.434;2022-12-07T06:24:14;101908.88;;;1.39;99.47
71716;BME280;59568;52.128;5.434;2022-12-07T06:26:42;101915.59;;;1.40;99.50
71716;BME280;59568;52.128;5.434;2022-12-07T06:29:10;101917.59;;;1.45;99.61
71716;BME280;59568;52.128;5.434;2022-12-07T06:31:39;101909.28;;;1.43;99.62
71716;BME280;59568;52.128;5.434;2022-12-07T06:34:10;101907.88;;;1.47;99.68
71716;BME280;59568;52.128;5.434;2022-12-07T06:36:38;101917.19;;;1.48;99.48
71716;BME280;59568;52.128;5.434;2022-12-07T06:39:06;101910.47;;;1.47;99.79
71716;BME280;59568;52.128;5.434;2022-12-07T06:41:38;101917.59;;;1.45;99.38
71716;BME280;59568;52.128;5.434;2022-12-07T06:44:06;101906.88;;;1.48;99.71
71716;BME280;59568;52.128;5.434;2022-12-07T06:46:33;101914.41;;;1.50;99.69
71716;BME280;59568;52.128;5.434;2022-12-07T06:49:03;101911.84;;;1.50;99.90
71716;BME280;59568;52.128;5.434;2022-12-07T06:51:32;101917.19;;;1.48;99.85
71716;BME280;59568;52.128;5.434;2022-12-07T06:53:59;101917.59;;;1.45;99.62
71716;BME280;59568;52.128;5.434;2022-12-07T06:56:26;101915.59;;;1.40;99.66
71716;BME280;59568;52.128;5.434;2022-12-07T06:58:53;101920.38;;;1.37;99.47
71716;BME280;59568;52.128;5.434;2022-12-07T07:01:20;101916.38;;;1.34;99.38
71716;BME280;59568;52.128;5.434;2022-12-07T07:03:47;101918.75;;;1.29;99.58
71716;BME280;59568;52.128;5.434;2022-12-07T07:06:14;101910.03;;;1.24;99.25
71716;BME280;59568;52.128;5.434;2022-12-07T07:08:42;101913.00;;;1.20;99.44
71716;BME280;59568;52.128;5.434;2022-12-07T07:11:10;101914.38;;;1.16;99.48
71716;BME280;59568;52.128;5.434;2022-12-07T07:13:37;101912.00;;;1.15;99.33
71716;BME280;59568;52.128;5.434;2022-12-07T07:16:05;101916.34;;;1.14;99.38
71716;BME280;59568;52.128;5.434;2022-12-07T07:18:33;101909.63;;;1.13;99.52
71716;BME280;59568;52.128;5.434;2022-12-07T07:21:00;101921.50;;;1.14;99.28
71716;BME280;59568;52.128;5.434;2022-12-07T07:23:28;101925.06;;;1.13;99.39
71716;BME280;59568;52.128;5.434;2022-12-07T07:25:55;101923.88;;;1.09;99.27
71716;BME280;59568;52.128;5.434;2022-12-07T07:28:22;101918.91;;;1.08;99.39
71716;BME280;59568;52.128;5.434;2022-12-07T07:30:49;101925.25;;;1.05;99.29
71716;BME280;59568;52.128;5.434;2022-12-07T07:33:17;101919.88;;;1.00;99.22
71716;BME280;59568;52.128;5.434;2022-12-07T07:35:44;101919.09;;;0.99;99.57
71716;BME280;59568;52.128;5.434;2022-12-07T07:38:10;101915.13;;;0.97;99.41
71716;BME280;59568;52.128;5.434;2022-12-07T07:40:37;101920.28;;;0.97;99.64
71716;BME280;59568;52.128;5.434;2022-12-07T07:43:04;101912.16;;;0.93;99.53
71716;BME280;59568;52.128;5.434;2022-12-07T07:45:31;101920.66;;;0.94;99.34
71716;BME280;59568;52.128;5.434;2022-12-07T07:47:58;101917.31;;;0.93;99.53
71716;BME280;59568;52.128;5.434;2022-12-07T07:50:25;101922.63;;;0.92;99.54
71716;BME280;59568;52.128;5.434;2022-12-07T07:52:52;101920.66;;;0.87;99.36
71716;BME280;59568;52.128;5.434;2022-12-07T07:55:19;101921.44;;;0.88;99.30
71716;BME280;59568;52.128;5.434;2022-12-07T07:57:46;101936.50;;;0.91;99.46
71716;BME280;59568;52.128;5.434;2022-12-07T08:00:20;101927.78;;;0.92;99.41
71716;BME280;59568;52.128;5.434;2022-12-07T08:02:48;101918.69;;;0.96;99.53
71716;BME280;59568;52.128;5.434;2022-12-07T08:05:15;101933.75;;;0.99;99.87
71716;BME280;59568;52.128;5.434;2022-12-07T08:07:45;101933.34;;;1.02;99.42
71716;BME280;59568;52.128;5.434;2022-12-07T08:10:13;101930.41;;;1.05;99.69
71716;BME280;59568;52.128;5.434;2022-12-07T08:12:42;101936.75;;;1.09;99.71
71716;BME280;59568;52.128;5.434;2022-12-07T08:15:30;101933.38;;;1.09;99.52
71716;BME280;59568;52.128;5.434;2022-12-07T08:17:58;101930.59;;;1.10;99.66
71716;BME280;59568;52.128;5.434;2022-12-07T08:20:25;101935.38;;;1.13;99.67
71716;BME280;59568;52.128;5.434;2022-12-07T08:22:52;101939.56;;;1.21;100.00
71716;BME280;59568;52.128;5.434;2022-12-07T08:25:19;101948.47;;;1.32;99.89
71716;BME280;59568;52.128;5.434;2022-12-07T08:27:47;101946.72;;;1.39;100.00
71716;BME280;59568;52.128;5.434;2022-12-07T08:30:14;101946.13;;;1.50;99.81
71716;BME280;59568;52.128;5.434;2022-12-07T08:32:42;101942.56;;;1.58;100.00
71716;BME280;59568;52.128;5.434;2022-12-07T08:35:10;101936.22;;;1.67;100.00
71716;BME280;59568;52.128;5.434;2022-12-07T08:37:38;101930.28;;;1.73;100.00
71716;BME280;59568;52.128;5.434;2022-12-07T08:40:07;101924.31;;;1.79;100.00
71716;BME280;59568;52.128;5.434;2022-12-07T08:42:35;101935.81;;;1.90;100.00
71716;BME280;59568;52.128;5.434;2022-12-07T08:45:09;101926.06;;;1.99;100.00
71716;BME280;59568;52.128;5.434;2022-12-07T08:47:41;101932.81;;;2.07;100.00
71716;BME280;59568;52.128;5.434;2022-12-07T08:50:09;101933.78;;;2.12;100.00
71716;BME280;59568;52.128;5.434;2022-12-07T08:52:38;101930.22;;;2.20;100.00
71716;BME280;59568;52.128;5.434;2022-12-07T08:55:09;101922.25;;;2.28;100.00
71716;BME280;59568;52.128;5.434;2022-12-07T08:57:38;101921.84;;;2.31;100.00
71716;BME280;59568;52.128;5.434;2022-12-07T09:00:06;101921.06;;;2.31;100.00
71716;BME280;59568;52.128;5.434;2022-12-07T09:02:37;101930.16;;;2.33;100.00
71716;BME280;59568;52.128;5.434;2022-12-07T09:05:05;101926.59;;;2.34;100.00
71716;BME280;59568;52.128;5.434;2022-12-07T09:07:37;101926.22;;;2.37;100.00
71716;BME280;59568;52.128;5.434;2022-12-07T09:10:06;101934.53;;;2.39;100.00
71716;BME280;59568;52.128;5.434;2022-12-07T09:12:33;101932.75;;;2.40;100.00
71716;BME280;59568;52.128;5.434;2022-12-07T09:15:00;101934.13;;;2.43;100.00
71716;BME280;59568;52.128;5.434;2022-12-07T09:17:27;101928.16;;;2.49;100.00
71716;BME280;59568;52.128;5.434;2022-12-07T09:19:54;101925.94;;;2.52;100.00
71716;BME280;59568;52.128;5.434;2022-12-07T09:22:21;101925.53;;;2.62;100.00
71716;BME280;59568;52.128;5.434;2022-12-07T09:24:49;101933.63;;;2.72;100.00
71716;BME280;59568;52.128;5.434;2022-12-07T09:27:16;101939.72;;;2.85;100.00
71716;BME280;59568;52.128;5.434;2022-12-07T09:29:44;101938.44;;;3.00;100.00
71716;BME280;59568;52.128;5.434;2022-12-07T09:32:11;101942.94;;;3.12;100.00
71716;BME280;59568;52.128;5.434;2022-12-07T09:34:41;101945.50;;;3.18;100.00
71716;BME280;59568;52.128;5.434;2022-12-07T09:37:10;101937.91;;;3.24;100.00
71716;BME280;59568;52.128;5.434;2022-12-07T09:39:38;101939.66;;;3.30;100.00
71716;BME280;59568;52.128;5.434;2022-12-07T09:42:37;101940.59;;;3.35;100.00
71716;BME280;59568;52.128;5.434;2022-12-07T09:45:22;101935.63;;;3.34;100.00
71716;BME280;59568;52.128;5.434;2022-12-07T09:47:51;101920.53;;;3.37;100.00
71716;BME280;59568;52.128;5.434;2022-12-07T09:50:25;101923.66;;;3.46;100.00
71716;BME280;59568;52.128;5.434;2022-12-07T09:53:13;101927.75;;;3.54;100.00
71716;BME280;59568;52.128;5.434;2022-12-07T09:55:41;101935.69;;;3.59;100.00
71716;BME280;59568;52.128;5.434;2022-12-07T09:58:20;101926.28;;;3.65;100.00
71716;BME280;59568;52.128;5.434;2022-12-07T10:00:52;101930.03;;;3.69;100.00
71716;BME280;59568;52.128;5.434;2022-12-07T10:03:20;101920.28;;;3.71;100.00
71716;BME280;59568;52.128;5.434;2022-12-07T10:05:50;101930.59;;;3.71;100.00
71716;BME280;59568;52.128;5.434;2022-12-07T10:08:17;101925.00;;;3.74;100.00
71716;BME280;59568;52.128;5.434;2022-12-07T10:10:46;101915.69;;;3.73;99.67
71716;BME280;59568;52.128;5.434;2022-12-07T10:13:19;101918.06;;;3.74;99.55
71716;BME280;59568;52.128;5.434;2022-12-07T10:15:55;101907.94;;;3.73;99.13
71716;BME280;59568;52.128;5.434;2022-12-07T10:18:38;101912.44;;;3.77;99.05
71716;BME280;59568;52.128;5.434;2022-12-07T10:21:14;101903.63;;;3.85;98.91
71716;BME280;59568;52.128;5.434;2022-12-07T10:24:00;101896.75;;;3.97;99.37
71716;BME280;59568;52.128;5.434;2022-12-07T10:26:36;101902.13;;;4.14;99.35
71716;BME280;59568;52.128;5.434;2022-12-07T10:31:57;101899.19;;;4.29;99.23
71716;BME280;59568;52.128;5.434;2022-12-07T10:34:27;101891.06;;;4.26;98.57
71716;BME280;59568;52.128;5.434;2022-12-07T10:39:54;101900.34;;;4.15;98.54
71716;BME280;59568;52.128;5.434;2022-12-07T10:45:06;101893.47;;;4.09;98.03
71716;BME280;59568;52.128;5.434;2022-12-07T10:47:40;101888.41;;;4.14;98.02
71716;BME280;59568;52.128;5.434;2022-12-07T10:58:53;101881.38;;;4.39;97.70
71716;BME280;59568;52.128;5.434;2022-12-07T11:01:24;101882.03;;;4.35;97.73
71716;BME280;59568;52.128;5.434;2022-12-07T11:13:01;101870.06;;;4.94;97.77
71716;BME280;59568;52.128;5.434;2022-12-07T11:15:49;101866.06;;;5.10;97.69
71716;BME280;59568;52.128;5.434;2022-12-07T11:18:31;101867.88;;;5.22;97.02
71716;BME280;59568;52.128;5.434;2022-12-07T11:21:31;101866.84;;;5.23;96.79
71716;BME280;59568;52.128;5.434;2022-12-07T11:24:24;101858.84;;;5.12;96.66
71716;BME280;59568;52.128;5.434;2022-12-07T11:29:49;101859.81;;;4.88;96.17
71716;BME280;59568;52.128;5.434;2022-12-07T11:32:25;101856.19;;;4.77;95.62
71716;BME280;59568;52.128;5.434;2022-12-07T11:35:11;101859.06;;;4.69;95.37
71716;BME280;59568;52.128;5.434;2022-12-07T11:37:41;101855.44;;;4.58;94.95
71716;BME280;59568;52.128;5.434;2022-12-07T11:40:35;101849.34;;;4.52;95.25
71716;BME280;59568;52.128;5.434;2022-12-07T11:45:34;101838.47;;;4.62;95.48
71716;BME280;59568;52.128;5.434;2022-12-07T11:50:41;101831.19;;;4.83;95.44
71716;BME280;59568;52.128;5.434;2022-12-07T11:55:52;101831.34;;;4.99;95.03
71716;BME280;59568;52.128;5.434;2022-12-07T12:01:22;101829.44;;;5.07;94.81
71716;BME280;59568;52.128;5.434;2022-12-07T12:06:36;101826.97;;;5.12;94.76
71716;BME280;59568;52.128;5.434;2022-12-07T12:21:02;101805.91;;;5.32;93.50
71716;BME280;59568;52.128;5.434;2022-12-07T12:23:44;101798.25;;;5.37;93.73
71716;BME280;59568;52.128;5.434;2022-12-07T12:26:32;101795.00;;;5.42;93.32
71716;BME280;59568;52.128;5.434;2022-12-07T12:29:05;101812.66;;;5.56;93.36
71716;BME280;59568;52.128;5.434;2022-12-07T12:31:36;101796.31;;;5.68;92.87
71716;BME280;59568;52.128;5.434;2022-12-07T12:34:57;101786.78;;;5.85;92.20
71716;BME280;59568;52.128;5.434;2022-12-07T12:43:01;101778.63;;;6.05;92.05
71716;BME280;59568;52.128;5.434;2022-12-07T12:45:32;101780.47;;;6.22;91.96
71716;BME280;59568;52.128;5.434;2022-12-07T12:48:09;101776.06;;;6.34;91.64
71716;BME280;59568;52.128;5.434;2022-12-07T12:54:22;101770.94;;;6.56;90.27
71716;BME280;59568;52.128;5.434;2022-12-07T12:57:15;101770.38;;;6.54;89.01
71716;BME280;59568;52.128;5.434;2022-12-07T13:15:52;101747.22;;;5.37;89.27
71716;BME280;59568;52.128;5.434;2022-12-07T13:29:24;101737.06;;;4.89;89.82
71716;BME280;59568;52.128;5.434;2022-12-07T13:31:56;101733.47;;;4.78;89.91
71716;BME280;59568;52.128;5.434;2022-12-07T13:34:38;101736.72;;;4.73;90.27
71716;BME280;59568;52.128;5.434;2022-12-07T13:37:24;101734.72;;;4.75;90.36
71716;BME280;59568;52.128;5.434;2022-12-07T13:39:55;101725.84;;;4.83;90.87
71716;BME280;59568;52.128;5.434;2022-12-07T13:44:58;101715.56;;;4.76;90.73
71716;BME280;59568;52.128;5.434;2022-12-07T13:47:36;101724.34;;;4.75;90.84
71716;BME280;59568;52.128;5.434;2022-12-07T13:50:36;101721.19;;;4.73;91.06
71716;BME280;59568;52.128;5.434;2022-12-07T13:53:11;101714.66;;;4.71;91.09
71716;BME280;59568;52.128;5.434;2022-12-07T13:55:45;101715.13;;;4.68;91.43
71716;BME280;59568;52.128;5.434;2022-12-07T13:58:20;101712.88;;;4.71;91.93
71716;BME280;59568;52.128;5.434;2022-12-07T14:00:51;101712.06;;;4.71;91.90
71716;BME280;59568;52.128;5.434;2022-12-07T14:03:30;101714.22;;;4.74;92.04
71716;BME280;59568;52.128;5.434;2022-12-07T14:06:21;101709.81;;;4.74;92.46
71716;BME280;59568;52.128;5.434;2022-12-07T14:08:49;101702.06;;;4.74;92.62
71716;BME280;59568;52.128;5.434;2022-12-07T14:11:29;101699.03;;;4.77;92.44
71716;BME280;59568;52.128;5.434;2022-12-07T14:13:59;101703.19;;;4.78;92.17
71716;BME280;59568;52.128;5.434;2022-12-07T14:19:00;101697.91;;;4.85;92.19
71716;BME280;59568;52.128;5.434;2022-12-07T14:21:29;101703.66;;;4.87;92.25
71716;BME280;59568;52.128;5.434;2022-12-07T14:24:16;101696.66;;;4.88;91.97
71716;BME280;59568;52.128;5.434;2022-12-07T14:26:48;101686.88;;;4.90;92.05
71716;BME280;59568;52.128;5.434;2022-12-07T14:29:30;101691.00;;;4.91;91.84
71716;BME280;59568;52.128;5.434;2022-12-07T14:32:04;101687.88;;;4.89;92.06
71716;BME280;59568;52.128;5.434;2022-12-07T14:34:41;101683.50;;;4.89;92.41
71716;BME280;59568;52.128;5.434;2022-12-07T14:37:09;101685.84;;;4.91;91.96
71716;BME280;59568;52.128;5.434;2022-12-07T14:39:37;101687.66;;;4.90;92.13
71716;BME280;59568;52.128;5.434;2022-12-07T14:42:04;101683.16;;;4.86;92.12
71716;BME280;59568;52.128;5.434;2022-12-07T14:44:31;101680.44;;;4.80;92.37
71716;BME280;59568;52.128;5.434;2022-12-07T14:47:01;101670.19;;;4.74;92.35
71716;BME280;59568;52.128;5.434;2022-12-07T14:49:48;101667.25;;;4.70;92.28
71716;BME280;59568;52.128;5.434;2022-12-07T14:52:20;101672.34;;;4.65;92.51
71716;BME280;59568;52.128;5.434;2022-12-07T14:55:25;101675.59;;;4.60;92.82
71716;BME280;59568;52.128;5.434;2022-12-07T14:57:54;101674.91;;;4.53;93.09
71716;BME280;59568;52.128;5.434;2022-12-07T15:00:25;101678.50;;;4.52;92.86
71716;BME280;59568;52.128;5.434;2022-12-07T15:02:52;101674.16;;;4.53;92.92
71716;BME280;59568;52.128;5.434;2022-12-07T15:05:21;101673.13;;;4.54;92.86
71716;BME280;59568;52.128;5.434;2022-12-07T15:07:49;101673.13;;;4.54;92.59
71716;BME280;59568;52.128;5.434;2022-12-07T15:12:50;101677.38;;;4.48;92.81
71716;BME280;59568;52.128;5.434;2022-12-07T15:15:18;101677.63;;;4.47;92.85
71716;BME280;59568;52.128;5.434;2022-12-07T15:17:45;101677.84;;;4.45;93.11
71716;BME280;59568;52.128;5.434;2022-12-07T15:20:14;101680.66;;;4.44;92.84
71716;BME280;59568;52.128;5.434;2022-12-07T15:22:41;101679.16;;;4.36;93.28
71716;BME280;59568;52.128;5.434;2022-12-07T15:25:12;101675.78;;;4.35;93.33
71716;BME280;59568;52.128;5.434;2022-12-07T15:27:41;101667.13;;;4.30;93.25
71716;BME280;59568;52.128;5.434;2022-12-07T15:30:11;101662.47;;;4.20;93.53
71716;BME280;59568;52.128;5.434;2022-12-07T15:32:40;101676.44;;;4.19;93.49
71716;BME280;59568;52.128;5.434;2022-12-07T15:35:08;101663.16;;;4.15;93.66
71716;BME280;59568;52.128;5.434;2022-12-07T15:37:35;101663.38;;;4.14;93.62
71716;BME280;59568;52.128;5.434;2022-12-07T15:40:03;101661.44;;;4.09;93.89